createdAt,value
2023-03-29T00:00:19.140Z,52.30
2023-03-29T00:03:07.483Z,53.10
2023-03-29T00:06:02.887Z,52.40
2023-03-29T00:08:54.066Z,52.30
2023-03-29T00:11:42.149Z,52.50
2023-03-29T00:14:31.251Z,52.40
2023-03-29T00:17:19.378Z,51.90
2023-03-29T00:20:10.321Z,52.50
2023-03-29T00:22:58.423Z,53.20
2023-03-29T00:25:47.763Z,52.50
2023-03-29T00:28:36.048Z,52.50
2023-03-29T00:31:24.154Z,52.40
2023-03-29T00:34:12.261Z,52.40
2023-03-29T00:37:00.403Z,53.00
2023-03-29T00:39:48.441Z,52.30
2023-03-29T00:42:38.388Z,52.20
2023-03-29T00:45:30.243Z,52.10
2023-03-29T00:48:21.598Z,52.00
2023-03-29T00:51:14.279Z,52.20
2023-03-29T00:54:06.919Z,52.10
2023-03-29T00:56:55.524Z,52.00
2023-03-29T00:59:46.792Z,52.00
2023-03-29T01:02:39.874Z,52.10
2023-03-29T01:05:32.494Z,51.50
2023-03-29T01:08:26.090Z,52.10
2023-03-29T01:11:18.457Z,52.10
2023-03-29T01:14:09.520Z,52.10
2023-03-29T01:16:59.436Z,52.10
2023-03-29T01:19:58.100Z,52.10
2023-03-29T01:23:01.578Z,52.30
2023-03-29T01:25:54.572Z,52.10
2023-03-29T01:28:51.697Z,52.10
2023-03-29T01:31:43.064Z,52.30
2023-03-29T01:34:36.643Z,52.30
2023-03-29T01:37:30.240Z,52.20
2023-03-29T01:40:18.473Z,52.10
2023-03-29T01:43:13.681Z,52.20
2023-03-29T01:46:08.397Z,52.10
2023-03-29T01:49:01.579Z,52.10
2023-03-29T01:51:54.889Z,52.10
2023-03-29T01:54:48.705Z,52.00
2023-03-29T01:57:40.769Z,51.90
2023-03-29T02:00:30.497Z,51.80
2023-03-29T02:03:21.864Z,51.80
2023-03-29T02:06:11.932Z,51.70
2023-03-29T02:09:00.199Z,51.70
2023-03-29T02:11:49.428Z,51.80
2023-03-29T02:14:38.244Z,51.80
2023-03-29T02:17:28.807Z,51.70
2023-03-29T02:20:22.593Z,51.80
2023-03-29T02:23:18.007Z,51.90
2023-03-29T02:26:08.570Z,51.70
2023-03-29T02:28:56.681Z,51.90
2023-03-29T02:31:50.340Z,51.80
2023-03-29T02:34:43.837Z,51.70
2023-03-29T02:37:36.345Z,51.60
2023-03-29T02:40:26.740Z,51.70
2023-03-29T02:43:16.696Z,51.80
2023-03-29T02:46:07.809Z,51.70
2023-03-29T02:48:58.129Z,51.50
2023-03-29T02:51:49.999Z,51.60
2023-03-29T02:54:43.257Z,51.50
2023-03-29T02:57:32.367Z,51.50
2023-03-29T03:00:23.040Z,51.50
2023-03-29T03:03:12.034Z,51.50
2023-03-29T03:06:01.643Z,51.40
2023-03-29T03:08:49.773Z,51.40
2023-03-29T03:11:39.206Z,51.40
2023-03-29T03:14:28.247Z,51.40
2023-03-29T03:17:18.716Z,51.40
2023-03-29T03:20:12.623Z,51.40
2023-03-29T03:23:03.266Z,51.40
2023-03-29T03:25:52.592Z,51.40
2023-03-29T03:28:42.156Z,51.40
2023-03-29T03:31:30.744Z,51.50
2023-03-29T03:34:19.398Z,51.50
2023-03-29T03:37:07.459Z,51.50
2023-03-29T03:39:55.561Z,51.40
2023-03-29T03:42:43.667Z,51.40
2023-03-29T03:45:33.072Z,62.70
2023-03-29T03:48:21.502Z,51.30
2023-03-29T03:51:10.121Z,51.30
2023-03-29T03:53:58.201Z,51.40
2023-03-29T03:56:48.068Z,51.50
2023-03-29T03:59:36.978Z,51.50
2023-03-29T04:02:26.665Z,51.50
2023-03-29T04:05:15.603Z,51.40
2023-03-29T04:08:03.677Z,51.40
2023-03-29T04:10:53.990Z,51.40
2023-03-29T04:13:42.120Z,51.40
2023-03-29T04:16:30.320Z,51.50
2023-03-29T04:19:19.805Z,51.30
2023-03-29T04:22:07.818Z,51.10
2023-03-29T04:24:56.239Z,51.30
2023-03-29T04:27:46.110Z,51.00
2023-03-29T04:30:34.594Z,51.00
2023-03-29T04:33:22.995Z,50.90
2023-03-29T04:36:13.886Z,51.10
2023-03-29T04:39:01.998Z,50.90
2023-03-29T04:41:50.036Z,50.90
2023-03-29T04:44:38.119Z,51.00
2023-03-29T04:47:29.872Z,50.90
2023-03-29T04:50:18.714Z,51.10
2023-03-29T04:53:08.480Z,51.10
2023-03-29T04:55:57.944Z,51.20
2023-03-29T04:58:46.042Z,51.20
2023-03-29T05:01:35.116Z,51.30
2023-03-29T05:04:23.232Z,51.30
2023-03-29T05:07:11.757Z,51.40
2023-03-29T05:10:01.221Z,51.40
2023-03-29T05:12:53.769Z,51.30
2023-03-29T05:15:43.389Z,63.10
2023-03-29T05:18:31.968Z,51.30
2023-03-29T05:21:20.590Z,51.40
2023-03-29T05:24:08.997Z,51.30
2023-03-29T05:26:58.400Z,51.30
2023-03-29T05:29:46.564Z,51.30
2023-03-29T05:32:36.795Z,51.10
2023-03-29T05:38:14.408Z,50.50
2023-03-29T05:41:02.611Z,51.00
2023-03-29T05:43:52.230Z,51.80
2023-03-29T05:46:40.250Z,51.00
2023-03-29T05:49:28.284Z,50.90
2023-03-29T05:52:16.469Z,50.90
2023-03-29T05:55:05.140Z,51.10
2023-03-29T05:57:53.178Z,51.20
2023-03-29T06:00:42.978Z,51.20
2023-03-29T06:03:31.398Z,51.30
2023-03-29T06:06:21.312Z,51.50
2023-03-29T06:09:10.505Z,51.40
2023-03-29T06:11:58.949Z,51.50
2023-03-29T06:14:48.211Z,51.20
2023-03-29T06:17:38.070Z,51.20
2023-03-29T06:20:26.272Z,51.20
2023-03-29T06:23:14.437Z,51.50
2023-03-29T06:26:02.601Z,51.50
2023-03-29T06:28:52.232Z,51.40
2023-03-29T06:31:40.874Z,51.20
2023-03-29T06:34:30.289Z,51.30
2023-03-29T06:37:18.402Z,51.40
2023-03-29T06:40:10.076Z,51.40
2023-03-29T06:42:59.365Z,51.20
2023-03-29T06:45:47.431Z,51.30
2023-03-29T06:48:35.868Z,51.60
2023-03-29T06:51:25.249Z,51.30
2023-03-29T06:54:13.294Z,51.50
2023-03-29T06:57:01.939Z,51.60
2023-03-29T06:59:50.043Z,52.20
2023-03-29T07:02:38.155Z,51.50
2023-03-29T07:05:28.132Z,63.00
2023-03-29T07:08:18.682Z,51.80
2023-03-29T07:11:07.109Z,51.60
2023-03-29T07:13:55.530Z,52.30
2023-03-29T07:16:44.841Z,51.80
2023-03-29T07:19:33.220Z,51.10
2023-03-29T07:22:21.394Z,51.50
2023-03-29T07:25:12.315Z,52.00
2023-03-29T07:28:00.328Z,51.90
2023-03-29T07:30:49.662Z,51.80
2023-03-29T07:33:39.132Z,51.60
2023-03-29T07:36:28.699Z,51.80
2023-03-29T07:39:16.834Z,51.80
2023-03-29T07:42:06.740Z,51.80
2023-03-29T07:44:55.756Z,51.70
2023-03-29T07:47:44.075Z,51.60
2023-03-29T07:50:32.913Z,51.80
2023-03-29T07:53:21.087Z,52.30
2023-03-29T07:56:09.888Z,51.80
2023-03-29T07:58:59.312Z,52.40
2023-03-29T08:01:47.337Z,52.70
2023-03-29T08:04:35.918Z,52.20
2023-03-29T08:07:24.796Z,52.50
2023-03-29T08:10:15.328Z,52.70
2023-03-29T08:13:06.026Z,52.70
2023-03-29T08:15:55.607Z,52.90
2023-03-29T08:18:43.651Z,63.60
2023-03-29T08:21:31.747Z,53.00
2023-03-29T08:24:21.016Z,52.90
2023-03-29T08:27:09.230Z,53.40
2023-03-29T08:29:57.673Z,53.20
2023-03-29T08:32:50.476Z,53.10
2023-03-29T08:35:39.108Z,53.30
2023-03-29T08:38:27.857Z,53.20
2023-03-29T08:41:30.067Z,53.50
2023-03-29T08:44:31.870Z,53.30
2023-03-29T08:47:26.581Z,53.20
2023-03-29T08:50:16.495Z,53.20
2023-03-29T08:53:09.843Z,53.30
2023-03-29T08:55:59.844Z,53.50
2023-03-29T08:58:48.996Z,64.30
2023-03-29T09:01:38.466Z,53.20
2023-03-29T09:04:30.431Z,53.40
2023-03-29T09:07:19.970Z,53.60
2023-03-29T09:10:15.312Z,53.70
2023-03-29T09:13:17.896Z,53.60
2023-03-29T09:16:13.465Z,53.40
2023-03-29T09:19:08.945Z,53.60
2023-03-29T09:22:05.234Z,53.60
2023-03-29T09:25:04.656Z,53.80
2023-03-29T09:28:00.218Z,53.90
2023-03-29T09:30:55.452Z,53.70
2023-03-29T09:33:50.527Z,54.00
2023-03-29T09:36:47.096Z,54.10
2023-03-29T09:39:35.089Z,54.20
2023-03-29T09:42:27.937Z,54.10
2023-03-29T09:45:16.118Z,54.30
2023-03-29T09:48:12.630Z,54.30
2023-03-29T09:51:02.882Z,54.20
2023-03-29T09:53:51.140Z,54.20
2023-03-29T09:56:39.658Z,54.20
2023-03-29T09:59:29.081Z,54.20
2023-03-29T10:02:21.141Z,54.30
2023-03-29T10:05:16.555Z,54.60
2023-03-29T10:08:19.439Z,54.50
2023-03-29T10:11:13.569Z,54.30
2023-03-29T10:14:04.388Z,54.40
2023-03-29T10:16:58.165Z,54.30
2023-03-29T10:19:50.978Z,54.40
2023-03-29T10:22:41.085Z,54.60
2023-03-29T10:25:32.828Z,54.60
2023-03-29T10:28:22.705Z,54.50
2023-03-29T10:31:19.322Z,54.40
2023-03-29T10:34:09.522Z,54.40
2023-03-29T10:36:59.959Z,54.30
2023-03-29T10:39:49.633Z,54.40
2023-03-29T10:42:48.030Z,54.40
2023-03-29T10:45:39.004Z,54.40
2023-03-29T10:48:31.459Z,54.60
2023-03-29T10:51:21.100Z,54.60
2023-03-29T10:54:14.601Z,54.40
2023-03-29T10:57:08.171Z,54.60
2023-03-29T11:00:02.410Z,54.70
2023-03-29T11:03:04.240Z,54.60
2023-03-29T11:06:00.317Z,54.70
2023-03-29T11:08:55.264Z,65.60
2023-03-29T11:12:15.127Z,54.80
2023-03-29T11:15:18.954Z,54.80
2023-03-29T11:18:27.793Z,54.90
2023-03-29T11:21:23.653Z,54.90
2023-03-29T11:24:36.286Z,55.30
2023-03-29T11:27:33.322Z,55.00
2023-03-29T11:30:25.476Z,54.90
2023-03-29T11:33:25.113Z,54.90
2023-03-29T11:36:18.334Z,55.00
2023-03-29T11:39:15.438Z,55.10
2023-03-29T11:42:10.234Z,55.00
2023-03-29T11:45:00.911Z,55.00
2023-03-29T11:47:51.370Z,55.10
2023-03-29T11:50:45.603Z,54.90
2023-03-29T11:53:40.119Z,54.90
2023-03-29T11:56:36.906Z,55.10
2023-03-29T11:59:33.280Z,55.00
2023-03-29T12:02:29.321Z,55.00
2023-03-29T12:05:22.148Z,55.10
2023-03-29T12:08:15.326Z,55.10
2023-03-29T12:11:08.511Z,55.10
2023-03-29T12:14:02.376Z,55.20
2023-03-29T12:16:58.261Z,55.30
2023-03-29T12:19:52.025Z,55.40
2023-03-29T12:22:40.949Z,55.50
2023-03-29T12:25:35.549Z,55.40
2023-03-29T12:28:36.819Z,55.50
2023-03-29T12:31:32.553Z,55.40
2023-03-29T12:34:35.338Z,55.30
2023-03-29T12:37:33.732Z,55.20
2023-03-29T12:40:27.504Z,55.20
2023-03-29T12:43:22.802Z,55.20
2023-03-29T12:46:15.580Z,55.10
2023-03-29T12:49:11.624Z,55.00
2023-03-29T12:52:04.269Z,55.00
2023-03-29T12:54:57.010Z,55.00
2023-03-29T12:57:57.256Z,54.80
2023-03-29T13:00:46.328Z,54.90
2023-03-29T13:03:47.530Z,54.90
2023-03-29T13:06:54.249Z,55.00
2023-03-29T13:09:52.824Z,54.90
2023-03-29T13:12:44.654Z,55.00
2023-03-29T13:15:35.712Z,55.00
2023-03-29T13:18:36.169Z,55.10
2023-03-29T13:21:36.225Z,55.10
2023-03-29T13:24:53.282Z,55.00
2023-03-29T13:27:49.601Z,55.00
2023-03-29T13:30:52.404Z,55.10
2023-03-29T13:33:52.553Z,54.90
2023-03-29T13:36:57.089Z,55.10
2023-03-29T13:39:51.427Z,55.20
2023-03-29T13:42:41.832Z,55.30
2023-03-29T13:45:33.646Z,55.20
2023-03-29T13:48:27.062Z,55.20
2023-03-29T13:51:28.581Z,55.20
2023-03-29T13:54:26.160Z,55.30
2023-03-29T13:57:18.197Z,55.30
2023-03-29T14:00:17.775Z,55.20
2023-03-29T14:03:12.264Z,55.20
2023-03-29T14:06:02.341Z,55.20
2023-03-29T14:08:50.803Z,66.40
2023-03-29T14:11:39.209Z,55.30
2023-03-29T14:14:29.446Z,55.30
2023-03-29T14:17:21.321Z,55.30
2023-03-29T14:20:16.630Z,55.30
2023-03-29T14:23:10.848Z,55.30
2023-03-29T14:26:08.083Z,55.40
2023-03-29T14:28:58.057Z,55.30
2023-03-29T14:31:46.264Z,55.40
2023-03-29T14:34:34.398Z,55.40
2023-03-29T14:37:27.158Z,55.50
2023-03-29T14:40:19.870Z,55.30
2023-03-29T14:43:11.051Z,55.20
2023-03-29T14:46:01.367Z,55.20
2023-03-29T14:48:50.037Z,55.40
2023-03-29T14:51:40.502Z,55.20
2023-03-29T14:54:32.886Z,55.30
2023-03-29T14:57:25.423Z,55.40
2023-03-29T15:00:24.100Z,56.20
2023-03-29T15:03:15.440Z,55.50
2023-03-29T15:06:05.734Z,55.60
2023-03-29T15:09:04.483Z,55.60
2023-03-29T15:11:57.496Z,55.70
2023-03-29T15:14:46.161Z,55.80
2023-03-29T15:17:50.538Z,55.90
2023-03-29T15:20:42.355Z,55.90
2023-03-29T15:23:37.566Z,56.00
2023-03-29T15:26:29.039Z,56.10
2023-03-29T15:29:23.520Z,56.10
2023-03-29T15:32:22.566Z,56.30
2023-03-29T15:35:24.131Z,56.30
2023-03-29T15:38:13.108Z,56.40
2023-03-29T15:41:01.905Z,56.50
2023-03-29T15:43:50.073Z,56.10
2023-03-29T15:46:39.608Z,56.80
2023-03-29T15:49:28.150Z,57.00
2023-03-29T15:52:16.778Z,57.00
2023-03-29T15:55:05.565Z,57.00
2023-03-29T15:57:54.731Z,57.10
2023-03-29T16:00:45.119Z,57.10
2023-03-29T16:03:36.085Z,57.20
2023-03-29T16:06:24.149Z,57.50
2023-03-29T16:09:12.774Z,57.30
2023-03-29T16:12:01.341Z,57.70
2023-03-29T16:14:49.346Z,57.70
2023-03-29T16:17:37.398Z,57.70
2023-03-29T16:20:27.315Z,57.70
2023-03-29T16:23:15.450Z,58.70
2023-03-29T16:26:03.701Z,57.80
2023-03-29T16:28:51.905Z,58.00
2023-03-29T16:31:42.248Z,58.10
2023-03-29T16:34:31.990Z,58.00
2023-03-29T16:37:21.401Z,58.40
2023-03-29T16:40:12.481Z,58.50
2023-03-29T16:43:00.976Z,58.50
2023-03-29T16:45:49.011Z,58.60
2023-03-29T16:48:37.190Z,58.70
2023-03-29T16:51:25.585Z,58.70
2023-03-29T16:54:15.260Z,58.90
2023-03-29T16:57:03.279Z,59.30
2023-03-29T16:59:51.552Z,59.30
2023-03-29T17:02:39.630Z,59.30
2023-03-29T17:05:27.611Z,59.40
2023-03-29T17:08:16.405Z,59.60
2023-03-29T17:11:07.283Z,67.80
2023-03-29T17:16:44.016Z,59.30
2023-03-29T17:19:32.065Z,60.70
2023-03-29T17:22:20.301Z,60.00
2023-03-29T17:25:09.251Z,60.10
2023-03-29T17:27:58.572Z,60.40
2023-03-29T17:30:47.078Z,60.50
2023-03-29T17:33:35.994Z,60.50
2023-03-29T17:36:25.054Z,60.70
2023-03-29T17:39:15.326Z,60.80
2023-03-29T17:42:03.377Z,60.80
2023-03-29T17:44:52.707Z,60.90
2023-03-29T17:47:40.920Z,61.00
2023-03-29T17:50:29.412Z,61.00
2023-03-29T17:53:17.524Z,61.20
2023-03-29T17:56:06.598Z,61.10
2023-03-29T17:58:54.953Z,61.30
2023-03-29T18:01:44.806Z,61.50
2023-03-29T18:04:33.898Z,61.50
2023-03-29T18:07:22.038Z,61.50
2023-03-29T18:10:10.985Z,61.60
2023-03-29T18:12:59.268Z,62.50
2023-03-29T18:15:47.550Z,61.80
2023-03-29T18:18:37.274Z,61.80
2023-03-29T18:21:27.393Z,61.90
2023-03-29T18:24:15.768Z,61.90
2023-03-29T18:27:03.854Z,62.00
2023-03-29T18:29:51.901Z,62.10
2023-03-29T18:32:40.205Z,62.20
2023-03-29T18:35:29.640Z,62.30
2023-03-29T18:38:18.413Z,62.20
2023-03-29T18:41:08.487Z,76.60
2023-03-29T18:43:57.380Z,62.30
2023-03-29T18:46:45.530Z,62.50
2023-03-29T18:49:34.289Z,62.50
2023-03-29T18:52:23.860Z,62.60
2023-03-29T18:55:11.971Z,62.70
2023-03-29T18:58:00.005Z,62.70
2023-03-29T19:00:48.093Z,62.70
2023-03-29T19:03:37.066Z,62.80
2023-03-29T19:06:25.391Z,62.80
2023-03-29T19:09:14.793Z,62.90
2023-03-29T19:12:02.849Z,62.90
2023-03-29T19:14:51.087Z,63.00
2023-03-29T19:17:39.213Z,63.10
2023-03-29T19:20:27.449Z,63.00
2023-03-29T19:23:15.482Z,63.20
2023-03-29T19:26:06.814Z,63.30
2023-03-29T19:28:55.109Z,63.20
2023-03-29T19:31:43.381Z,63.30
2023-03-29T19:34:31.787Z,63.30
2023-03-29T19:37:20.200Z,63.30
2023-03-29T19:40:10.932Z,63.40
2023-03-29T19:43:00.316Z,63.30
2023-03-29T19:45:50.494Z,63.40
2023-03-29T19:48:38.907Z,63.40
2023-03-29T19:51:27.686Z,63.00
2023-03-29T19:54:17.365Z,63.60
2023-03-29T19:57:07.278Z,63.60
2023-03-29T19:59:56.839Z,63.60
2023-03-29T20:02:45.247Z,63.70
2023-03-29T20:05:35.235Z,63.80
2023-03-29T20:08:24.635Z,63.90
2023-03-29T20:11:14.271Z,78.50
2023-03-29T20:14:02.429Z,64.00
2023-03-29T20:16:52.404Z,64.00
2023-03-29T20:19:44.138Z,64.10
2023-03-29T20:22:32.792Z,64.30
2023-03-29T20:25:21.111Z,64.30
2023-03-29T20:28:09.343Z,64.40
2023-03-29T20:30:57.482Z,64.40
2023-03-29T20:33:47.003Z,64.60
2023-03-29T20:36:35.728Z,64.50
2023-03-29T20:39:25.806Z,64.50
2023-03-29T20:42:14.542Z,64.80
2023-03-29T20:45:03.197Z,64.90
2023-03-29T20:47:57.400Z,65.20
2023-03-29T20:50:48.368Z,65.00
2023-03-29T20:53:36.510Z,65.10
2023-03-29T20:56:26.250Z,65.40
2023-03-29T20:59:14.359Z,65.40
2023-03-29T21:02:02.569Z,65.50
2023-03-29T21:04:51.886Z,65.50
2023-03-29T21:07:42.307Z,65.70
2023-03-29T21:10:30.900Z,65.60
2023-03-29T21:13:19.033Z,65.80
2023-03-29T21:16:08.098Z,65.80
2023-03-29T21:18:56.348Z,66.00
2023-03-29T21:21:47.337Z,66.10
2023-03-29T21:24:37.191Z,66.10
2023-03-29T21:27:25.302Z,66.10
2023-03-29T21:30:14.180Z,66.20
2023-03-29T21:33:02.516Z,66.10
2023-03-29T21:35:51.344Z,66.30
2023-03-29T21:38:39.543Z,66.20
2023-03-29T21:41:29.012Z,66.20
2023-03-29T21:44:17.058Z,66.40
2023-03-29T21:47:05.449Z,66.40
2023-03-29T21:49:53.617Z,66.50
2023-03-29T21:52:41.684Z,66.60
2023-03-29T21:55:29.981Z,66.70
2023-03-29T21:58:20.139Z,66.70
2023-03-29T22:01:10.491Z,76.10
2023-03-29T22:03:58.773Z,66.90
2023-03-29T22:06:47.015Z,66.90
2023-03-29T22:09:35.613Z,66.90
2023-03-29T22:12:26.957Z,67.10
2023-03-29T22:15:17.104Z,67.10
2023-03-29T22:18:06.030Z,67.10
2023-03-29T22:20:54.323Z,67.10
2023-03-29T22:23:43.313Z,67.00
2023-03-29T22:26:33.098Z,67.10
2023-03-29T22:29:21.314Z,67.40
2023-03-29T22:32:10.876Z,67.30
2023-03-29T22:34:59.486Z,67.20
2023-03-29T22:37:47.593Z,67.40
2023-03-29T22:40:35.758Z,67.50
2023-03-29T22:43:23.847Z,67.40
2023-03-29T22:46:14.192Z,67.40
2023-03-29T22:49:03.858Z,67.50
2023-03-29T22:51:51.934Z,67.50
2023-03-29T22:54:40.948Z,67.50
2023-03-29T22:57:29.011Z,67.50
2023-03-29T23:00:17.785Z,67.60
2023-03-29T23:03:06.592Z,67.60
2023-03-29T23:05:57.468Z,67.70
2023-03-29T23:08:45.489Z,67.60
2023-03-29T23:11:33.730Z,67.70
2023-03-29T23:14:22.728Z,67.70
2023-03-29T23:17:11.049Z,67.70
2023-03-29T23:19:59.410Z,67.90
2023-03-29T23:22:48.827Z,67.90
2023-03-29T23:25:37.304Z,67.80
2023-03-29T23:28:27.406Z,67.90
2023-03-29T23:31:17.908Z,81.80
2023-03-29T23:34:06.018Z,68.10
2023-03-29T23:36:54.185Z,68.30
2023-03-29T23:39:43.535Z,68.30
2023-03-29T23:42:31.748Z,68.20
2023-03-29T23:45:20.301Z,68.10
2023-03-29T23:48:08.615Z,68.40
2023-03-29T23:50:57.813Z,68.50
2023-03-29T23:53:46.534Z,68.50
2023-03-29T23:56:35.943Z,68.80
2023-03-29T23:59:29.773Z,68.90
